RK8R weather

Public forecast

Using degrees Celsius for public forecast. Weather courtesy of forecast.io.

Closest aviation weather report (METAR) to N 302 Helipad

Closest report is Sacheon Air Base/Airport, 36.7 nm (67.9 km) NW. Retrieved 2020/08/14 23:00 UTC (13 minutes ago):

RKPS 142300Z 22006KT 9999 FEW015 29/25 Q1010 RMK SLP107 8/600 9/200

Closest aviation forecast (TAF) to N 302 Helipad

Closest forecast is Sacheon Air Base/Airport, 36.7 nm (67.9 km) NW. Retrieved 2020/08/14 18:00 UTC (5 hours ago):

TAF RKPS 141700Z 1418/1524 24006KT 9999 SCT030 SCT200 TN25/1421Z TX33/1506Z